Time;durP1;ratioP1;P1;durP2;ratioP2;P2;SDS_P1;SDS_P2;PMS_P1;PMS_P2;Temp;Humidity;BMP_temperature;BMP_pressure;BME280_temperature;BME280_humidity;BME280_pressure;Samples;Min_cycle;Max_cycle;Signal;HPM_P1;HPM_P2
2022/06/22 00:01:05;;;;;;;4.57;3.17;;;11.50;99.90;;;;;;5008255;28;20054;-51
2022/06/22 00:03:33;;;;;;;4.53;3.33;;;11.50;99.90;;;;;;4992841;28;20030;-52
2022/06/22 00:06:00;;;;;;;3.83;3.13;;;11.40;99.90;;;;;;4991102;28;20396;-51
2022/06/22 00:08:29;;;;;;;4.18;3.45;;;11.40;99.90;;;;;;4986761;28;20065;-49
2022/06/22 00:11:07;;;;;;;3.92;3.53;;;11.40;99.90;;;;;;5016328;28;20392;-52
2022/06/22 00:13:33;;;;;;;3.40;3.13;;;11.40;99.90;;;;;;4990303;28;20053;-50
2022/06/22 00:16:03;;;;;;;4.10;3.30;;;11.30;99.90;;;;;;5015011;28;20033;-50
2022/06/22 00:18:40;;;;;;;3.58;3.30;;;11.30;99.90;;;;;;4987675;28;20034;-51
2022/06/22 00:21:16;;;;;;;3.85;3.38;;;11.30;99.90;;;;;;4995267;28;20033;-50
2022/06/22 00:23:45;;;;;;;2.92;2.67;;;11.20;99.90;;;;;;5000709;28;20060;-53
2022/06/22 00:26:23;;;;;;;3.35;3.05;;;11.20;99.90;;;;;;4993045;28;20022;-51
2022/06/22 00:29:00;;;;;;;3.70;3.30;;;11.20;99.90;;;;;;4998709;28;20053;-51
2022/06/22 00:31:48;;;;;;;4.38;2.80;;;11.10;99.90;;;;;;4990693;28;20045;-54
2022/06/22 00:34:16;;;;;;;3.75;3.17;;;11.10;99.90;;;;;;4996259;28;20386;-49
2022/06/22 00:37:21;;;;;;;4.15;3.47;;;11.10;99.90;;;;;;4989660;28;20044;-53
2022/06/22 00:39:50;;;;;;;3.33;2.90;;;11.00;99.90;;;;;;4988355;28;20034;-52
2022/06/22 00:42:39;;;;;;;3.17;2.88;;;11.00;99.90;;;;;;4984839;28;20480;-50
2022/06/22 00:45:09;;;;;;;5.38;3.40;;;10.90;99.90;;;;;;4999295;28;20042;-53
2022/06/22 00:47:35;;;;;;;4.18;3.78;;;10.90;99.90;;;;;;4997564;28;20479;-50
2022/06/22 00:50:12;;;;;;;3.90;3.50;;;10.90;99.90;;;;;;4996737;28;20027;-53
2022/06/22 00:52:45;;;;;;;3.47;3.25;;;10.90;99.90;;;;;;4997479;28;20124;-52
2022/06/22 00:55:34;;;;;;;5.10;3.38;;;10.90;99.90;;;;;;5008496;28;20034;-52
2022/06/22 00:58:25;;;;;;;4.55;3.25;;;10.80;99.90;;;;;;4992486;28;20100;-51
2022/06/22 01:00:58;;;;;;;4.18;3.75;;;10.70;99.90;;;;;;4992017;28;20034;-51
2022/06/22 01:03:34;;;;;;;4.10;3.22;;;10.70;99.90;;;;;;4988216;28;20398;-52
2022/06/22 01:06:28;;;;;;;4.20;3.80;;;10.70;99.90;;;;;;5000570;28;20193;-52
2022/06/22 01:09:02;;;;;;;5.88;3.67;;;10.70;99.90;;;;;;5000440;28;20032;-54
2022/06/22 01:14:36;;;;;;;5.35;3.97;;;10.60;99.90;;;;;;4987961;28;20037;-50
2022/06/22 01:17:05;;;;;;;4.85;3.78;;;10.60;99.90;;;;;;4995624;28;20035;-50
2022/06/22 01:19:51;;;;;;;4.47;4.07;;;10.50;99.90;;;;;;4988189;28;20026;-55
2022/06/22 01:22:45;;;;;;;4.00;3.47;;;10.50;99.90;;;;;;5000269;28;20090;-53
2022/06/22 01:25:10;;;;;;;4.82;3.50;;;10.50;99.90;;;;;;4989445;28;20019;-55
2022/06/22 01:27:39;;;;;;;3.78;3.33;;;10.40;99.90;;;;;;4997054;28;20084;-50
2022/06/22 01:30:31;;;;;;;6.38;3.65;;;10.40;99.90;;;;;;4988812;28;20057;-51
2022/06/22 01:32:57;;;;;;;4.32;3.80;;;10.40;99.90;;;;;;4985208;28;20097;-53
2022/06/22 01:35:33;;;;;;;5.80;3.83;;;10.30;99.90;;;;;;4984360;28;20126;-53
2022/06/22 01:38:09;;;;;;;4.57;3.60;;;10.30;99.90;;;;;;4984977;28;20535;-52
2022/06/22 01:40:49;;;;;;;4.18;3.75;;;10.30;99.90;;;;;;4995596;28;20125;-52
2022/06/22 01:43:30;;;;;;;4.28;3.60;;;10.20;99.90;;;;;;4986150;28;20022;-51
2022/06/22 01:46:09;;;;;;;4.65;3.67;;;10.20;99.90;;;;;;4996218;28;20026;-54
2022/06/22 01:48:54;;;;;;;5.72;3.60;;;10.20;99.90;;;;;;4989120;28;20033;-50
2022/06/22 01:51:33;;;;;;;4.32;3.88;;;10.10;99.90;;;;;;4994080;28;20045;-52
2022/06/22 01:54:19;;;;;;;4.20;3.80;;;10.00;99.90;;;;;;4997450;28;20027;-50
2022/06/22 01:56:49;;;;;;;;;;;10.00;99.90;;;;;;4994444;28;20037;-50
2022/06/22 01:59:41;;;;;;;3.60;3.30;;;10.00;99.90;;;;;;4986083;28;19906;-54
2022/06/22 02:02:19;;;;;;;5.28;3.72;;;10.00;99.90;;;;;;4989965;28;20539;-51
2022/06/22 02:04:55;;;;;;;4.93;4.43;;;10.00;99.90;;;;;;5004978;28;20129;-49
2022/06/22 02:07:44;;;;;;;4.68;3.90;;;9.90;99.90;;;;;;4978038;28;20053;-51
2022/06/22 02:10:23;;;;;;;4.60;4.13;;;9.90;99.90;;;;;;4997840;28;20046;-52
2022/06/22 02:13:13;;;;;;;6.07;3.90;;;9.90;99.90;;;;;;5000124;28;20743;-50
2022/06/22 02:15:39;;;;;;;7.43;4.18;;;9.80;99.90;;;;;;4997419;28;20034;-50
2022/06/22 02:18:17;;;;;;;4.28;3.55;;;9.80;99.90;;;;;;4989498;28;20034;-53
2022/06/22 02:20:43;;;;;;;5.20;4.65;;;9.80;99.90;;;;;;4992477;28;20022;-50
2022/06/22 02:23:33;;;;;;;5.90;4.55;;;9.70;99.90;;;;;;4990038;28;20054;-49
2022/06/22 02:26:22;;;;;;;4.28;3.83;;;9.70;99.90;;;;;;4992095;28;20731;-51
2022/06/22 02:28:49;;;;;;;4.43;3.97;;;9.60;99.90;;;;;;4985663;28;20052;-51
2022/06/22 02:31:18;;;;;;;4.85;4.20;;;9.60;99.90;;;;;;4984680;28;20018;-50
2022/06/22 02:33:49;;;;;;;5.22;4.72;;;9.60;99.90;;;;;;4989465;28;20030;-54
2022/06/22 02:36:16;;;;;;;5.45;3.75;;;9.60;99.90;;;;;;4983133;28;20027;-52
2022/06/22 02:38:44;;;;;;;4.70;4.20;;;9.50;99.90;;;;;;4990098;28;20038;-50
2022/06/22 02:46:42;;;;;;;6.97;5.05;;;9.50;99.90;;;;;;5000031;28;20161;-52
2022/06/22 02:49:21;;;;;;;5.93;4.65;;;9.40;99.90;;;;;;4987630;28;20480;-51
2022/06/22 02:51:48;;;;;;;5.13;4.43;;;9.40;99.90;;;;;;4990808;28;20037;-55
2022/06/22 02:54:28;;;;;;;4.95;4.43;;;9.40;99.90;;;;;;4987873;28;20023;-54
2022/06/22 02:57:17;;;;;;;9.43;4.97;;;9.40;99.90;;;;;;4990533;28;20512;-50
2022/06/22 02:59:45;;;;;;;5.20;4.70;;;9.40;99.90;;;;;;4999259;28;20026;-52
2022/06/22 03:02:11;;;;;;;6.40;4.32;;;9.30;99.90;;;;;;4990302;28;20128;-51
2022/06/22 03:04:39;;;;;;;5.30;4.68;;;9.30;99.90;;;;;;4992347;28;20105;-53
2022/06/22 03:07:05;;;;;;;4.63;4.22;;;9.30;99.90;;;;;;4984281;28;20029;-52
2022/06/22 03:09:31;;;;;;;5.30;4.80;;;9.30;99.90;;;;;;4992889;28;20026;-50
2022/06/22 03:11:59;;;;;;;5.05;4.53;;;9.30;99.90;;;;;;4999730;28;20031;-50
2022/06/22 03:15:02;;;;;;;4.63;4.22;;;9.30;99.90;;;;;;4990451;28;20113;-53
2022/06/22 03:17:35;;;;;;;6.05;4.10;;;9.20;99.90;;;;;;4992598;28;20038;-53
2022/06/22 03:20:04;;;;;;;5.07;4.47;;;9.20;99.90;;;;;;4990878;28;20397;-54
2022/06/22 03:22:35;;;;;;;4.18;3.78;;;9.20;99.90;;;;;;4986798;28;20023;-52
2022/06/22 03:25:21;;;;;;;5.28;4.15;;;9.20;99.90;;;;;;4990067;28;20385;-53
2022/06/22 03:27:52;;;;;;;5.03;4.53;;;9.20;99.90;;;;;;4986784;28;20027;-54
2022/06/22 03:30:35;;;;;;;5.95;4.50;;;9.10;99.90;;;;;;4987664;28;20022;-50
2022/06/22 03:33:06;;;;;;;5.07;4.45;;;9.10;99.90;;;;;;4988798;28;20023;-51
2022/06/22 03:35:44;;;;;;;5.82;4.43;;;9.10;99.90;;;;;;4987611;28;20493;-50
2022/06/22 03:38:12;;;;;;;5.82;4.32;;;9.10;99.90;;;;;;4988272;28;20065;-50
2022/06/22 03:41:03;;;;;;;4.70;3.83;;;9.10;99.90;;;;;;4992191;28;20080;-50
2022/06/22 03:43:55;;;;;;;5.45;4.28;;;9.10;99.90;;;;;;4988669;28;20436;-49
2022/06/22 03:46:24;;;;;;;4.72;3.58;;;9.10;99.90;;;;;;4976445;28;20058;-52
2022/06/22 03:49:05;;;;;;;5.10;4.50;;;9.10;99.90;;;;;;4990128;28;20022;-53
2022/06/22 03:51:47;;;;;;;4.15;3.75;;;9.10;99.90;;;;;;4986085;28;20023;-53
2022/06/22 03:54:22;;;;;;;4.63;4.13;;;9.10;99.90;;;;;;4989360;28;20030;-51
2022/06/22 03:56:55;;;;;;;5.07;4.20;;;9.10;99.90;;;;;;4995193;28;20077;-53
2022/06/22 03:59:21;;;;;;;4.70;4.20;;;9.10;99.90;;;;;;4984594;28;20534;-51
2022/06/22 04:01:47;;;;;;;5.22;4.45;;;9.10;99.90;;;;;;4989056;28;20121;-52
2022/06/22 04:04:13;;;;;;;6.05;4.47;;;9.10;99.90;;;;;;4987338;28;20102;-54
2022/06/22 04:06:44;;;;;;;8.38;5.15;;;9.20;99.90;;;;;;4988563;28;20488;-55
2022/06/22 04:09:18;;;;;;;5.47;4.97;;;9.20;99.90;;;;;;4983051;28;20014;-49
2022/06/22 04:12:03;;;;;;;5.72;5.13;;;9.20;99.90;;;;;;4987238;28;20022;-50
2022/06/22 04:14:50;;;;;;;6.28;4.82;;;9.20;99.90;;;;;;4985121;28;20045;-54
2022/06/22 04:17:37;;;;;;;5.65;4.97;;;9.20;99.90;;;;;;5003057;28;20034;-50
2022/06/22 04:20:21;;;;;;;;;;;9.20;99.90;;;;;;4989727;28;20575;-50
2022/06/22 04:22:51;;;;;;;4.90;4.30;;;9.30;99.90;;;;;;4985163;28;20428;-54
2022/06/22 04:25:37;;;;;;;10.20;5.00;;;9.30;99.90;;;;;;4980407;28;20382;-50
2022/06/22 04:28:06;;;;;;;5.35;4.88;;;9.30;99.90;;;;;;4986799;28;20402;-50
2022/06/22 04:30:42;;;;;;;5.30;4.80;;;9.40;99.90;;;;;;4990624;28;20490;-50
2022/06/22 04:33:41;;;;;;;6.03;4.93;;;9.40;99.90;;;;;;4989155;28;20018;-50
2022/06/22 04:36:15;;;;;;;6.25;5.13;;;9.40;99.90;;;;;;4983477;28;20492;-53
2022/06/22 04:38:49;;;;;;;6.53;5.57;;;9.50;99.90;;;;;;4986416;28;20110;-53
2022/06/22 04:41:27;;;;;;;7.18;6.28;;;9.50;99.90;;;;;;4987274;28;20093;-49
2022/06/22 04:43:56;;;;;;;7.43;5.35;;;9.60;99.90;;;;;;4989803;28;20032;-53
2022/06/22 04:46:27;;;;;;;6.55;5.93;;;9.60;99.90;;;;;;4986529;28;20025;-52
2022/06/22 04:48:57;;;;;;;9.32;6.88;;;9.70;99.90;;;;;;4989153;28;20022;-50
2022/06/22 04:51:32;;;;;;;9.30;6.65;;;9.80;99.90;;;;;;4985728;28;20027;-52
2022/06/22 04:53:59;;;;;;;9.13;7.22;;;10.00;99.90;;;;;;5002847;28;20030;-53
2022/06/22 04:56:31;;;;;;;8.32;7.22;;;10.10;99.90;;;;;;5002177;28;20039;-55
2022/06/22 04:58:58;;;;;;;9.50;6.60;;;10.20;99.90;;;;;;4983532;28;20493;-55
2022/06/22 05:01:29;;;;;;;10.30;7.03;;;10.30;99.90;;;;;;5015950;22;20044;-47
2022/06/22 05:03:59;;;;;;;10.90;7.68;;;10.40;99.90;;;;;;5045532;28;20021;-45
2022/06/22 05:06:38;;;;;;;11.90;9.30;;;10.60;99.90;;;;;;5048431;28;20021;-46
2022/06/22 05:09:14;;;;;;;13.57;7.82;;;10.70;99.90;;;;;;5044811;28;20017;-48
2022/06/22 05:11:44;;;;;;;11.98;7.25;;;10.80;99.90;;;;;;5046971;28;20025;-45
2022/06/22 05:14:23;;;;;;;10.60;7.35;;;11.00;99.90;;;;;;5049529;28;20017;-47
2022/06/22 05:16:58;;;;;;;12.80;6.45;;;11.10;99.90;;;;;;5050169;28;20621;-44
2022/06/22 05:19:33;;;;;;;10.82;7.32;;;11.30;99.90;;;;;;5050382;28;20040;-46
2022/06/22 05:21:58;;;;;;;9.68;7.20;;;11.50;99.90;;;;;;5048958;28;20040;-45
2022/06/22 05:24:33;;;;;;;10.75;7.53;;;11.60;99.90;;;;;;5049404;28;20033;-45
2022/06/22 05:27:04;;;;;;;8.80;6.87;;;11.70;99.90;;;;;;5049740;28;20021;-44
2022/06/22 05:29:43;;;;;;;8.73;6.15;;;11.80;99.90;;;;;;5049649;28;20275;-46
2022/06/22 05:32:17;;;;;;;14.68;8.45;;;11.90;99.90;;;;;;5049210;28;20032;-47
2022/06/22 05:34:45;;;;;;;9.50;6.47;;;12.00;99.90;;;;;;5046020;28;20029;-46
2022/06/22 05:37:19;;;;;;;9.15;5.47;;;12.10;99.90;;;;;;5049529;28;20021;-49
2022/06/22 05:39:44;;;;;;;10.18;6.32;;;12.30;99.90;;;;;;5049630;28;20047;-45
2022/06/22 05:42:14;;;;;;;8.77;6.53;;;12.40;99.90;;;;;;5049146;28;20025;-46
2022/06/22 05:44:40;;;;;;;12.63;6.25;;;12.50;99.90;;;;;;5049318;28;20461;-45
2022/06/22 05:47:28;;;;;;;12.35;6.15;;;12.60;99.90;;;;;;5049831;28;20111;-44
2022/06/22 05:50:04;;;;;;;10.27;6.60;;;12.80;99.90;;;;;;5049722;28;20091;-48
2022/06/22 05:52:39;;;;;;;;;;;13.00;99.90;;;;;;5049935;28;20026;-48
2022/06/22 05:55:18;;;;;;;9.18;5.72;;;13.20;99.90;;;;;;5049552;28;19916;-49
2022/06/22 05:57:58;;;;;;;8.18;5.28;;;13.40;99.90;;;;;;5049471;28;20025;-48
2022/06/22 06:00:31;;;;;;;6.10;5.47;;;13.60;99.90;;;;;;5047498;28;20025;-46
2022/06/22 06:03:17;;;;;;;11.68;5.85;;;13.70;99.90;;;;;;5041883;28;20021;-45
2022/06/22 06:05:58;;;;;;;12.93;6.00;;;13.90;99.90;;;;;;5050871;28;20100;-46
2022/06/22 06:08:50;;;;;;;6.68;5.25;;;14.10;99.90;;;;;;5047391;28;20108;-50
2022/06/22 06:11:20;;;;;;;6.68;5.50;;;14.20;99.90;;;;;;5042741;28;20044;-51
2022/06/22 06:13:58;;;;;;;13.00;6.88;;;14.40;99.90;;;;;;5052849;28;20033;-50
2022/06/22 06:16:41;;;;;;;9.48;5.03;;;14.60;99.90;;;;;;5046143;28;20082;-47
2022/06/22 06:19:07;;;;;;;13.38;6.15;;;14.70;99.90;;;;;;5052906;28;20017;-48
2022/06/22 06:21:36;;;;;;;6.93;5.40;;;14.80;99.90;;;;;;5052291;28;20395;-52
2022/06/22 06:24:18;;;;;;;13.18;5.90;;;14.90;99.90;;;;;;5052643;28;20025;-45
2022/06/22 06:29:45;;;;;;;12.27;6.30;;;15.10;99.90;;;;;;5053498;28;20075;-46
2022/06/22 06:32:23;;;;;;;7.70;6.07;;;15.30;99.90;;;;;;5052795;28;20013;-46
2022/06/22 06:35:02;;;;;;;14.85;6.47;;;15.60;99.90;;;;;;5050133;28;20048;-48
2022/06/22 06:37:44;;;;;;;8.43;5.88;;;15.80;99.90;;;;;;5046734;28;20376;-47
2022/06/22 06:40:29;;;;;;;10.95;6.53;;;15.70;99.90;;;;;;5052708;28;20383;-46
2022/06/22 06:43:18;;;;;;;7.60;5.93;;;15.60;99.90;;;;;;5052098;28;20094;-47
2022/06/22 06:45:44;;;;;;;8.20;7.07;;;15.40;99.90;;;;;;5052882;28;20139;-46
2022/06/22 06:48:19;;;;;;;13.55;9.85;;;15.40;99.90;;;;;;5052453;28;20050;-46
2022/06/22 06:50:48;;;;;;;10.95;8.73;;;15.60;99.90;;;;;;5052702;28;20395;-46
2022/06/22 06:53:39;;;;;;;13.82;10.27;;;15.80;99.90;;;;;;5047324;28;20111;-51
2022/06/22 06:56:17;;;;;;;11.88;10.07;;;16.00;99.90;;;;;;5052537;28;20032;-46
2022/06/22 06:58:51;;;;;;;15.57;11.35;;;16.10;99.90;;;;;;5052190;28;20029;-48
2022/06/22 07:01:30;;;;;;;14.45;10.20;;;15.80;99.90;;;;;;5044515;28;20037;-48
2022/06/22 07:04:07;;;;;;;16.05;10.15;;;15.60;99.90;;;;;;5052498;28;20043;-45
2022/06/22 07:06:34;;;;;;;14.40;10.73;;;15.60;99.90;;;;;;5052827;28;20040;-47
2022/06/22 07:09:13;;;;;;;16.20;11.48;;;15.60;99.90;;;;;;5052414;28;20438;-48
2022/06/22 07:11:54;;;;;;;14.18;9.73;;;15.70;99.90;;;;;;5051980;28;20452;-46
2022/06/22 07:14:31;;;;;;;18.02;11.10;;;15.90;99.90;;;;;;5044611;28;20076;-46
2022/06/22 07:17:01;;;;;;;12.38;10.30;;;16.10;99.90;;;;;;5051379;28;20044;-45
2022/06/22 07:19:34;;;;;;;13.48;10.07;;;16.40;99.90;;;;;;5052189;28;20036;-48
2022/06/22 07:22:20;;;;;;;12.35;9.65;;;16.70;99.90;;;;;;5050962;28;20517;-51
2022/06/22 07:25:01;;;;;;;11.02;8.20;;;16.80;99.90;;;;;;5048678;28;20029;-51
2022/06/22 07:27:27;;;;;;;10.45;8.40;;;17.10;99.90;;;;;;5049474;28;20025;-53
2022/06/22 07:30:28;;;;;;;13.10;9.07;;;17.50;99.90;;;;;;5052745;28;20390;-48
2022/06/22 07:33:02;;;;;;;10.48;7.80;;;17.90;99.90;;;;;;5000869;28;20033;-48
2022/06/22 07:35:40;;;;;;;11.88;8.32;;;17.80;99.90;;;;;;5042017;28;20033;-50
2022/06/22 07:38:14;;;;;;;9.45;7.15;;;18.10;99.90;;;;;;5051982;28;20029;-51
2022/06/22 07:41:18;;;;;;;9.15;7.10;;;18.30;99.90;;;;;;5052227;28;20025;-47
2022/06/22 07:43:27;;;;;;;9.50;6.95;;;18.40;99.90;;;;;;5049494;28;20395;-46
2022/06/22 07:45:52;;;;;;;10.75;6.38;;;18.70;99.90;;;;;;5051638;28;20025;-50
2022/06/22 07:48:20;;;;;;;7.90;7.05;;;18.90;99.90;;;;;;5051563;28;20017;-46
2022/06/22 07:50:51;;;;;;;9.57;6.18;;;19.00;99.90;;;;;;5051659;28;20557;-50
2022/06/22 07:53:19;;;;;;;9.45;6.70;;;19.20;99.90;;;;;;5046528;28;20040;-47
2022/06/22 07:55:52;;;;;;;9.80;6.53;;;19.40;99.90;;;;;;5051545;28;20147;-47
2022/06/22 07:58:17;;;;;;;9.40;6.63;;;19.70;99.90;;;;;;5045955;28;20028;-47
2022/06/22 08:00:46;;;;;;;7.15;6.40;;;20.00;99.90;;;;;;5051504;28;20037;-47
2022/06/22 08:03:30;;;;;;;7.30;6.18;;;20.40;99.90;;;;;;5050907;28;20033;-52
2022/06/22 08:06:00;;;;;;;6.85;5.30;;;20.40;99.90;;;;;;5047091;28;20049;-50
2022/06/22 08:08:54;;;;;;;7.05;5.88;;;20.40;99.90;;;;;;5051168;28;20166;-49
2022/06/22 08:11:30;;;;;;;5.43;4.63;;;20.60;99.90;;;;;;5039759;28;20017;-49
2022/06/22 08:14:02;;;;;;;7.43;5.18;;;20.80;99.90;;;;;;5051230;28;20032;-52
2022/06/22 08:16:36;;;;;;;8.00;5.53;;;21.10;99.90;;;;;;5051017;28;20017;-50
2022/06/22 08:19:03;;;;;;;10.07;5.18;;;21.10;99.90;;;;;;5050893;28;20056;-49
2022/06/22 08:21:29;;;;;;;6.15;4.70;;;21.30;99.90;;;;;;5050179;28;20541;-50
2022/06/22 08:23:58;;;;;;;8.98;5.43;;;21.30;99.90;;;;;;5050468;28;20043;-47
2022/06/22 08:26:29;;;;;;;6.40;5.63;;;21.40;99.90;;;;;;5050834;28;20025;-49
2022/06/22 08:28:55;;;;;;;5.40;4.30;;;21.30;99.90;;;;;;5049764;28;20495;-46
2022/06/22 08:31:20;;;;;;;9.38;5.45;;;21.30;99.90;;;;;;5050106;28;20017;-49
2022/06/22 08:33:56;;;;;;;7.82;4.88;;;21.40;99.90;;;;;;5050530;28;20082;-50
2022/06/22 08:36:42;;;;;;;6.05;5.22;;;21.20;99.90;;;;;;5046586;28;20083;-47
2022/06/22 08:39:32;;;;;;;6.33;4.90;;;21.30;99.90;;;;;;5050596;28;20701;-49
2022/06/22 08:42:13;;;;;;;9.20;5.82;;;21.30;99.90;;;;;;5044579;28;20383;-50
2022/06/22 08:44:49;;;;;;;9.02;5.63;;;21.50;99.90;;;;;;5050252;28;20021;-47
2022/06/22 08:47:59;;;;;;;7.68;5.63;;;21.30;99.90;;;;;;5042867;28;20013;-47
2022/06/22 08:50:57;;;;;;;8.98;5.55;;;21.30;99.90;;;;;;4995972;28;20579;-47
2022/06/22 08:53:42;;;;;;;9.77;5.47;;;21.10;99.90;;;;;;5050023;28;20040;-49
2022/06/22 08:56:27;;;;;;;8.07;6.43;;;21.40;99.90;;;;;;5050327;28;20075;-46
2022/06/22 08:59:20;;;;;;;8.18;6.75;;;21.70;99.90;;;;;;5050270;28;20108;-50
2022/06/22 09:02:07;;;;;;;7.78;5.65;;;21.50;99.90;;;;;;5049773;28;20086;-47
2022/06/22 09:04:51;;;;;;;8.52;6.07;;;21.50;99.90;;;;;;5044568;28;20028;-44
2022/06/22 09:07:34;;;;;;;8.05;6.15;;;21.60;99.90;;;;;;5048799;28;20055;-49
2022/06/22 09:10:25;;;;;;;10.10;6.95;;;21.70;99.90;;;;;;5050213;28;20021;-51
2022/06/22 09:13:08;;;;;;;6.63;5.22;;;21.70;99.90;;;;;;5046256;28;20037;-47
2022/06/22 09:15:56;;;;;;;7.38;5.65;;;21.70;99.90;;;;;;5050022;28;20716;-47
2022/06/22 09:18:44;;;;;;;7.65;6.25;;;21.60;99.90;;;;;;5058293;28;20032;-48
2022/06/22 09:21:37;;;;;;;5.78;5.28;;;21.60;99.90;;;;;;5044676;28;20025;-47
2022/06/22 09:24:04;;;;;;;8.50;6.57;;;21.70;99.90;;;;;;5049894;28;20051;-46
2022/06/22 09:27:00;;;;;;;8.68;6.03;;;21.80;99.90;;;;;;5049687;28;20021;-47
2022/06/22 09:29:40;;;;;;;7.85;6.22;;;21.80;99.90;;;;;;5048793;28;20092;-47
2022/06/22 09:32:33;;;;;;;7.50;6.75;;;21.70;99.50;;;;;;5049421;28;20097;-46
2022/06/22 09:35:40;;;;;;;8.32;5.70;;;21.50;99.90;;;;;;5048662;28;20092;-46
2022/06/22 09:38:14;;;;;;;9.63;5.90;;;21.60;99.90;;;;;;4999288;28;20030;-47
2022/06/22 09:40:54;;;;;;;6.78;6.03;;;21.70;99.90;;;;;;4993217;28;20109;-48
2022/06/22 09:43:26;;;;;;;8.57;6.07;;;21.80;99.90;;;;;;5022461;28;20082;-47
2022/06/22 09:46:10;;;;;;;9.23;5.35;;;21.90;99.90;;;;;;5047839;28;20025;-47
2022/06/22 09:48:55;;;;;;;7.50;5.75;;;22.10;99.90;;;;;;5049626;28;20112;-47
2022/06/22 09:51:56;;;;;;;8.85;6.00;;;21.80;99.80;;;;;;5042803;28;20510;-47
2022/06/22 09:57:44;;;;;;;7.85;6.18;;;21.90;99.90;;;;;;5042394;28;20075;-45
2022/06/22 10:00:51;;;;;;;7.70;5.38;;;22.00;99.90;;;;;;5043613;28;20033;-46
2022/06/22 10:03:23;;;;;;;8.18;5.82;;;21.90;99.40;;;;;;5015597;28;20052;-48
2022/06/22 10:05:55;;;;;;;9.00;5.15;;;21.70;99.80;;;;;;5044838;28;20052;-49
2022/06/22 10:08:46;;;;;;;11.15;5.68;;;22.00;99.90;;;;;;5049626;28;20638;-46
2022/06/22 10:11:29;;;;;;;9.75;5.55;;;22.00;99.70;;;;;;5024590;28;20065;-49
2022/06/22 10:14:16;;;;;;;8.13;6.72;;;21.90;98.80;;;;;;5049166;28;20027;-52
2022/06/22 10:16:56;;;;;;;6.85;5.30;;;21.80;99.20;;;;;;5048419;28;20025;-48
2022/06/22 10:19:56;;;;;;;7.53;6.03;;;21.90;99.90;;;;;;5042486;28;20021;-52
2022/06/22 10:22:40;;;;;;;6.90;5.65;;;22.10;99.90;;;;;;5045388;28;20553;-49
2022/06/22 10:25:35;;;;;;;9.23;6.22;;;22.10;99.90;;;;;;5047980;28;20036;-48
2022/06/22 10:28:38;;;;;;;6.60;5.45;;;22.10;99.60;;;;;;5044853;28;20100;-47
2022/06/22 10:31:04;;;;;;;4.32;3.90;;;22.00;98.00;;;;;;5049159;28;20499;-45
2022/06/22 10:34:00;;;;;;;6.63;4.78;;;21.90;99.20;;;;;;5049045;28;20025;-47
2022/06/22 10:36:28;;;;;;;6.40;4.03;;;22.00;97.40;;;;;;5045790;28;20469;-49
2022/06/22 10:39:48;;;;;;;7.40;4.28;;;22.10;95.90;;;;;;5049129;28;20135;-48
2022/06/22 10:46:11;;;;;;;5.60;3.63;;;22.00;95.90;;;;;;4985810;28;20045;-47
2022/06/22 10:49:00;;;;;;;7.10;4.15;;;21.90;98.80;;;;;;5048754;28;20037;-47
2022/06/22 10:51:49;;;;;;;7.50;4.55;;;22.00;97.50;;;;;;5042776;28;20035;-51
2022/06/22 10:54:18;;;;;;;5.72;4.00;;;21.90;96.80;;;;;;5040524;28;20017;-47
2022/06/22 10:57:11;;;;;;;7.32;4.63;;;21.90;98.10;;;;;;5048376;28;20023;-47
2022/06/22 11:00:14;;;;;;;6.53;3.78;;;21.80;97.90;;;;;;5047416;28;20032;-48
2022/06/22 11:02:55;;;;;;;5.10;4.18;;;21.80;98.60;;;;;;5052484;22;20049;-52
2022/06/22 11:05:50;;;;;;;6.15;4.22;;;22.00;99.10;;;;;;5025787;28;20071;-50
2022/06/22 11:08:49;;;;;;;5.63;3.80;;;22.10;97.80;;;;;;5018191;28;20205;-50
2022/06/22 11:11:30;;;;;;;3.08;2.70;;;22.30;98.30;;;;;;5016007;28;20022;-53
2022/06/22 11:14:11;;;;;;;5.43;4.03;;;22.40;99.40;;;;;;5012089;28;20029;-54
2022/06/22 11:17:00;;;;;;;4.68;3.13;;;22.50;97.40;;;;;;5012302;28;20566;-51
2022/06/22 11:19:39;;;;;;;8.32;3.60;;;22.50;97.60;;;;;;4999230;28;20551;-54
2022/06/22 11:22:14;;;;;;;5.57;3.30;;;22.60;96.90;;;;;;5010109;28;20036;-52
2022/06/22 11:24:42;;;;;;;6.10;3.03;;;22.60;96.80;;;;;;5011925;28;20527;-52
2022/06/22 11:31:13;;;;;;;5.07;3.50;;;22.80;97.00;;;;;;5009854;28;20454;-51
2022/06/22 11:33:23;;;;;;;4.28;2.97;;;22.60;96.60;;;;;;5012436;28;20030;-52
2022/06/22 11:36:08;;;;;;;6.25;3.45;;;22.70;96.80;;;;;;5011892;28;20058;-51
2022/06/22 11:38:58;;;;;;;5.85;3.10;;;22.70;96.80;;;;;;5005135;28;20088;-51
2022/06/22 11:41:57;;;;;;;7.22;3.58;;;22.80;97.60;;;;;;5002896;28;20104;-52
2022/06/22 11:44:42;;;;;;;5.18;3.20;;;22.80;96.10;;;;;;5010815;28;20085;-52
2022/06/22 11:47:17;;;;;;;4.53;2.85;;;22.70;97.40;;;;;;5010955;28;20447;-51
2022/06/22 11:49:58;;;;;;;;;;;22.70;96.40;;;;;;5012379;28;20049;-51
2022/06/22 11:52:53;;;;;;;4.75;2.92;;;22.80;97.20;;;;;;5009719;28;20000;-50
2022/06/22 11:55:30;;;;;;;7.68;4.00;;;22.90;96.30;;;;;;5008332;28;20065;-51
2022/06/22 11:58:23;;;;;;;4.18;2.92;;;22.90;95.60;;;;;;5011479;28;20034;-54
2022/06/22 12:01:12;;;;;;;4.93;2.90;;;22.90;96.20;;;;;;5008058;28;20122;-54
2022/06/22 12:04:09;;;;;;;3.85;3.42;;;23.10;95.90;;;;;;5003997;28;20047;-52
2022/06/22 12:06:53;;;;;;;6.15;3.88;;;23.30;96.20;;;;;;5001062;28;20021;-56
2022/06/22 12:09:39;;;;;;;4.72;3.08;;;23.30;96.10;;;;;;5009946;28;20084;-51
2022/06/22 12:12:29;;;;;;;3.15;2.70;;;23.30;95.90;;;;;;5010889;28;20607;-53
2022/06/22 12:15:10;;;;;;;4.97;3.13;;;23.50;96.70;;;;;;5011034;28;20032;-53
2022/06/22 12:18:22;;;;;;;8.60;5.05;;;23.60;96.30;;;;;;5009772;28;20113;-52
2022/06/22 12:21:08;;;;;;;7.63;3.00;;;23.70;96.20;;;;;;4999891;28;20038;-54
2022/06/22 12:23:48;;;;;;;7.25;3.17;;;23.50;94.80;;;;;;4999803;28;20029;-56
2022/06/22 12:26:39;;;;;;;3.90;2.55;;;23.00;95.80;;;;;;5011206;28;20105;-52
2022/06/22 12:29:14;;;;;;;5.93;3.92;;;23.00;96.20;;;;;;5010522;28;20081;-48
2022/06/22 12:31:51;;;;;;;5.28;2.65;;;22.90;96.40;;;;;;5010193;28;20022;-50
2022/06/22 12:34:25;;;;;;;4.63;3.53;;;23.10;96.20;;;;;;5004392;28;20579;-52
2022/06/22 12:36:56;;;;;;;5.97;3.47;;;23.20;95.40;;;;;;5004389;28;20045;-54
2022/06/22 12:39:44;;;;;;;8.50;3.03;;;23.40;96.20;;;;;;5010596;28;20022;-54
2022/06/22 12:42:24;;;;;;;6.30;3.28;;;23.60;96.60;;;;;;5009397;28;20084;-53
2022/06/22 12:44:53;;;;;;;8.00;3.90;;;23.80;95.60;;;;;;5010190;28;20026;-55
2022/06/22 12:47:30;;;;;;;4.07;3.08;;;24.00;93.90;;;;;;5010505;28;20014;-53
2022/06/22 12:50:45;;;;;;;4.32;3.17;;;24.10;95.80;;;;;;5010485;28;20058;-53
2022/06/22 12:53:20;;;;;;;4.47;2.70;;;24.20;94.10;;;;;;5010000;28;20380;-52
2022/06/22 12:55:56;;;;;;;3.65;2.58;;;24.10;94.40;;;;;;5009190;28;20034;-54
2022/06/22 12:58:32;;;;;;;5.10;3.13;;;24.20;94.80;;;;;;5000953;28;20064;-54
2022/06/22 13:00:59;;;;;;;3.38;2.65;;;24.40;95.10;;;;;;5010063;28;20022;-51
2022/06/22 13:03:34;;;;;;;5.30;2.90;;;24.50;94.10;;;;;;5009262;28;20565;-53
2022/06/22 13:06:00;;;;;;;4.82;2.42;;;24.60;94.70;;;;;;5010176;28;20596;-54
2022/06/22 13:08:27;;;;;;;8.20;2.80;;;24.70;93.50;;;;;;5010060;28;20041;-55
2022/06/22 13:11:01;;;;;;;3.08;2.75;;;24.60;93.10;;;;;;5003429;28;20018;-54
2022/06/22 13:13:45;;;;;;;3.70;2.63;;;24.40;93.80;;;;;;5009652;28;20524;-53
2022/06/22 13:16:34;;;;;;;5.03;2.83;;;24.10;93.70;;;;;;5008890;28;20505;-53
2022/06/22 13:19:19;;;;;;;4.03;2.58;;;24.00;93.50;;;;;;5009979;28;20051;-52
2022/06/22 13:21:54;;;;;;;4.13;2.90;;;23.80;94.40;;;;;;5009111;28;20167;-52
2022/06/22 13:24:31;;;;;;;5.00;3.00;;;23.70;94.20;;;;;;5007874;28;20041;-54
2022/06/22 13:27:29;;;;;;;6.40;3.83;;;23.60;94.10;;;;;;5009065;28;20025;-50
2022/06/22 13:30:07;;;;;;;5.22;3.70;;;23.40;94.00;;;;;;5004386;28;20083;-53
2022/06/22 13:32:34;;;;;;;4.05;2.92;;;23.50;95.20;;;;;;5009317;28;20080;-53
2022/06/22 13:35:03;;;;;;;4.72;2.97;;;23.60;96.30;;;;;;5008277;28;20025;-52
2022/06/22 13:37:43;;;;;;;2.58;2.33;;;23.90;95.60;;;;;;5009915;28;20030;-52
2022/06/22 13:40:31;;;;;;;5.93;2.83;;;24.20;95.10;;;;;;5009717;28;20556;-50
2022/06/22 13:43:23;;;;;;;2.53;2.20;;;24.40;94.50;;;;;;5009037;28;20118;-50
2022/06/22 13:46:07;;;;;;;7.18;2.70;;;24.60;95.10;;;;;;5009791;28;20399;-53
2022/06/22 13:48:34;;;;;;;3.53;2.22;;;24.90;93.40;;;;;;5009688;28;20022;-52
2022/06/22 13:51:18;;;;;;;5.75;2.63;;;24.90;94.30;;;;;;5009293;28;20032;-50
2022/06/22 13:54:11;;;;;;;3.97;2.42;;;24.90;92.90;;;;;;5009317;28;20018;-50
2022/06/22 13:57:02;;;;;;;2.83;2.60;;;25.00;93.30;;;;;;4999424;28;20037;-49
2022/06/22 13:59:42;;;;;;;4.10;2.53;;;25.10;93.90;;;;;;4997202;28;20056;-52
2022/06/22 14:02:22;;;;;;;3.65;2.03;;;25.30;93.20;;;;;;5009377;28;20083;-51
2022/06/22 14:04:56;;;;;;;3.88;2.70;;;25.50;93.70;;;;;;5009363;28;20053;-52
2022/06/22 14:08:06;;;;;;;3.95;2.00;;;25.60;92.30;;;;;;5001708;28;20080;-50
2022/06/22 14:11:03;;;;;;;5.65;2.30;;;25.50;91.80;;;;;;4987279;28;20038;-48